createdAt,value
2019-02-06T00:01:03.550Z,4.05
2019-02-06T00:03:32.439Z,3.93
2019-02-06T00:06:01.076Z,3.89
2019-02-06T00:08:29.618Z,3.84
2019-02-06T00:10:58.250Z,3.82
2019-02-06T00:13:27.169Z,3.82
2019-02-06T00:15:56.026Z,3.83
2019-02-06T00:18:24.817Z,3.84
2019-02-06T00:20:53.643Z,3.91
2019-02-06T00:23:22.389Z,3.93
2019-02-06T00:25:51.782Z,3.98
2019-02-06T00:28:20.526Z,4.02
2019-02-06T00:30:49.655Z,4.03
2019-02-06T00:33:18.343Z,4.04
2019-02-06T00:35:47.142Z,3.93
2019-02-06T00:38:15.706Z,3.97
2019-02-06T00:40:45.872Z,4.00
2019-02-06T00:43:14.549Z,4.03
2019-02-06T00:45:43.668Z,3.95
2019-02-06T00:48:13.603Z,4.04
2019-02-06T00:50:42.486Z,4.05
2019-02-06T00:53:10.955Z,4.04
2019-02-06T00:55:39.460Z,4.03
2019-02-06T00:58:07.953Z,4.02
2019-02-06T01:00:37.023Z,4.10
2019-02-06T01:03:06.766Z,4.08
2019-02-06T01:05:38.383Z,4.05
2019-02-06T01:08:06.196Z,3.86
2019-02-06T01:10:34.951Z,4.07
2019-02-06T01:13:04.016Z,4.14
2019-02-06T01:15:33.461Z,4.00
2019-02-06T01:18:02.027Z,4.08
2019-02-06T01:20:30.599Z,3.99
2019-02-06T01:22:59.912Z,3.75
2019-02-06T01:25:28.693Z,4.02
2019-02-06T01:27:57.247Z,4.01
2019-02-06T01:30:28.081Z,4.03
2019-02-06T01:32:58.252Z,4.00
2019-02-06T01:35:26.934Z,3.89
2019-02-06T01:37:56.352Z,4.04
2019-02-06T01:40:25.124Z,3.93
2019-02-06T01:42:53.700Z,3.88
2019-02-06T01:45:31.403Z,3.80
2019-02-06T01:48:00.564Z,3.73
2019-02-06T01:50:28.958Z,3.89
2019-02-06T01:52:57.558Z,3.90
2019-02-06T01:55:26.047Z,3.76
2019-02-06T01:57:57.206Z,3.58
2019-02-06T02:00:26.119Z,3.59
2019-02-06T02:02:55.200Z,3.77
2019-02-06T02:05:23.939Z,3.41
2019-02-06T02:07:52.629Z,3.64
2019-02-06T02:10:21.356Z,3.74
2019-02-06T02:12:50.567Z,3.76
2019-02-06T02:15:19.134Z,3.43
2019-02-06T02:17:47.814Z,3.56
2019-02-06T02:20:19.128Z,3.32
2019-02-06T02:22:47.730Z,3.60
2019-02-06T02:25:16.709Z,3.69
2019-02-06T02:27:45.495Z,3.64
2019-02-06T02:30:22.822Z,3.45
2019-02-06T02:32:51.817Z,3.26
2019-02-06T02:35:20.568Z,3.53
2019-02-06T02:37:49.355Z,3.56
2019-02-06T02:40:17.900Z,3.40
2019-02-06T02:42:46.421Z,3.27
2019-02-06T02:45:17.962Z,2.94
2019-02-06T02:47:46.955Z,2.85
2019-02-06T02:50:16.000Z,2.86
2019-02-06T02:52:44.423Z,2.80
2019-02-06T02:55:14.046Z,2.68
2019-02-06T02:57:42.712Z,2.70
2019-02-06T03:00:17.684Z,2.68
2019-02-06T03:03:13.242Z,2.68
2019-02-06T03:05:41.818Z,2.74
2019-02-06T03:08:10.287Z,2.87
2019-02-06T03:10:38.940Z,2.98
2019-02-06T03:13:07.807Z,3.10
2019-02-06T03:15:36.515Z,3.02
2019-02-06T03:18:05.598Z,3.07
2019-02-06T03:20:34.129Z,3.12
2019-02-06T03:23:02.707Z,3.09
2019-02-06T03:25:31.239Z,3.21
2019-02-06T03:27:59.986Z,3.30
2019-02-06T03:30:28.560Z,3.02
2019-02-06T03:32:57.057Z,3.22
2019-02-06T03:35:25.750Z,3.30
2019-02-06T03:37:55.756Z,3.31
2019-02-06T03:40:24.338Z,3.29
2019-02-06T03:42:52.895Z,3.37
2019-02-06T03:45:21.452Z,3.37
2019-02-06T03:47:50.092Z,3.34
2019-02-06T03:50:20.727Z,3.33
2019-02-06T03:52:49.343Z,3.27
2019-02-06T03:55:17.989Z,3.38
2019-02-06T03:57:46.591Z,3.28
2019-02-06T04:00:16.112Z,3.36
2019-02-06T04:02:44.729Z,3.13
2019-02-06T04:05:13.851Z,3.21
2019-02-06T04:07:42.432Z,3.24
2019-02-06T04:10:13.350Z,3.33
2019-02-06T04:12:42.028Z,3.34
2019-02-06T04:15:11.474Z,3.37
2019-02-06T04:17:40.020Z,3.09
2019-02-06T04:20:09.910Z,3.14
2019-02-06T04:22:38.369Z,3.29
2019-02-06T04:25:07.827Z,3.18
2019-02-06T04:27:36.425Z,3.26
2019-02-06T04:30:07.371Z,3.27
2019-02-06T04:32:35.899Z,3.26
2019-02-06T04:35:07.106Z,3.31
2019-02-06T04:37:35.726Z,3.35
2019-02-06T04:40:09.075Z,3.39
2019-02-06T04:42:37.605Z,3.15
2019-02-06T04:45:07.079Z,3.26
2019-02-06T04:47:35.666Z,3.36
2019-02-06T04:50:06.032Z,3.13
2019-02-06T04:52:34.858Z,3.30
2019-02-06T04:55:04.085Z,3.22
2019-02-06T04:57:33.773Z,3.32
2019-02-06T05:00:04.093Z,3.25
2019-02-06T05:02:32.561Z,3.36
2019-02-06T05:05:01.125Z,3.20
2019-02-06T05:07:29.756Z,3.22
2019-02-06T05:09:58.325Z,3.30
2019-02-06T05:12:26.931Z,3.09
2019-02-06T05:14:55.920Z,3.27
2019-02-06T05:17:24.718Z,3.37
2019-02-06T05:19:53.444Z,3.36
2019-02-06T05:22:21.915Z,2.96
2019-02-06T05:24:50.622Z,3.09
2019-02-06T05:27:19.099Z,3.21
2019-02-06T05:29:47.911Z,3.23
2019-02-06T05:32:16.653Z,3.24
2019-02-06T05:34:45.352Z,3.21
2019-02-06T05:37:13.939Z,3.18
2019-02-06T05:39:42.766Z,3.18
2019-02-06T05:42:11.559Z,3.20
2019-02-06T05:44:41.971Z,3.21
2019-02-06T05:47:10.633Z,3.24
2019-02-06T05:49:39.626Z,3.03
2019-02-06T05:52:08.465Z,3.19
2019-02-06T05:54:37.042Z,2.87
2019-02-06T05:57:05.633Z,3.03
2019-02-06T05:59:34.642Z,2.80
2019-02-06T06:02:04.662Z,2.89
2019-02-06T06:04:33.243Z,2.76
2019-02-06T06:07:02.054Z,2.82
2019-02-06T06:09:30.613Z,2.71
2019-02-06T06:11:59.217Z,2.74
2019-02-06T06:14:27.853Z,2.72
2019-02-06T06:16:56.276Z,3.06
2019-02-06T06:19:25.488Z,2.87
2019-02-06T06:21:54.591Z,3.08
2019-02-06T06:24:23.334Z,2.81
2019-02-06T06:26:51.858Z,2.75
2019-02-06T06:29:21.015Z,2.75
2019-02-06T06:31:49.722Z,2.84
2019-02-06T06:34:18.185Z,2.92
2019-02-06T06:36:46.981Z,2.97
2019-02-06T06:39:16.123Z,3.02
2019-02-06T06:41:45.080Z,3.18
2019-02-06T06:44:13.665Z,3.08
2019-02-06T06:46:42.114Z,3.15
2019-02-06T06:49:10.570Z,3.18
2019-02-06T06:51:39.240Z,3.22
2019-02-06T06:54:07.946Z,3.33
2019-02-06T06:56:36.821Z,3.40
2019-02-06T06:59:05.486Z,3.42
2019-02-06T07:01:34.797Z,3.39
2019-02-06T07:04:03.551Z,3.37
2019-02-06T07:06:32.037Z,3.44
2019-02-06T07:09:00.932Z,3.29
2019-02-06T07:11:29.786Z,3.37
2019-02-06T07:13:58.706Z,3.35
2019-02-06T07:16:27.293Z,3.43
2019-02-06T07:18:55.862Z,3.45
2019-02-06T07:21:24.358Z,3.42
2019-02-06T07:23:53.480Z,3.44
2019-02-06T07:26:22.253Z,3.39
2019-02-06T07:28:51.095Z,3.44
2019-02-06T07:31:19.838Z,3.64
2019-02-06T07:33:48.541Z,3.54
2019-02-06T07:36:18.307Z,3.33
2019-02-06T07:38:47.244Z,3.32
2019-02-06T07:41:15.993Z,3.21
2019-02-06T07:43:44.737Z,3.54
2019-02-06T07:46:13.443Z,3.71
2019-02-06T07:48:42.125Z,3.67
2019-02-06T07:51:11.176Z,3.45
2019-02-06T07:53:39.689Z,3.72
2019-02-06T07:56:08.383Z,3.81
2019-02-06T07:58:37.528Z,3.46
2019-02-06T08:01:06.225Z,3.57
2019-02-06T08:03:34.900Z,3.55
2019-02-06T08:06:03.735Z,3.52
2019-02-06T08:08:36.189Z,3.66
2019-02-06T08:11:03.571Z,3.80
2019-02-06T08:13:32.914Z,3.51
2019-02-06T08:16:01.887Z,3.77
2019-02-06T08:18:30.500Z,4.06
2019-02-06T08:20:59.215Z,4.02
2019-02-06T08:23:28.031Z,4.13
2019-02-06T08:25:56.695Z,4.15
2019-02-06T08:28:25.302Z,4.33
2019-02-06T08:30:54.595Z,4.35
2019-02-06T08:33:23.881Z,4.40
2019-02-06T08:35:52.572Z,4.49
2019-02-06T08:38:21.126Z,4.33
2019-02-06T08:40:49.851Z,4.46
2019-02-06T08:43:18.591Z,4.58
2019-02-06T08:45:47.324Z,4.66
2019-02-06T08:48:15.888Z,4.44
2019-02-06T08:50:44.565Z,4.63
2019-02-06T08:53:13.050Z,4.72
2019-02-06T08:55:41.726Z,4.84
2019-02-06T08:58:10.305Z,4.91
2019-02-06T09:00:39.821Z,4.96
2019-02-06T09:03:10.672Z,5.11
2019-02-06T09:05:40.367Z,5.18
2019-02-06T09:08:09.666Z,5.03
2019-02-06T09:10:38.777Z,5.23
2019-02-06T09:13:07.333Z,5.41
2019-02-06T09:15:36.419Z,5.53
2019-02-06T09:18:06.104Z,5.61
2019-02-06T09:20:35.268Z,5.54
2019-02-06T09:23:04.891Z,5.58
2019-02-06T09:25:33.659Z,5.64
2019-02-06T09:28:02.231Z,5.69
2019-02-06T09:30:32.551Z,5.82
2019-02-06T09:33:01.453Z,5.76
2019-02-06T09:35:29.935Z,5.83
2019-02-06T09:37:58.635Z,5.87
2019-02-06T09:40:29.202Z,6.02
2019-02-06T09:42:57.768Z,6.15
2019-02-06T09:45:26.556Z,6.21
2019-02-06T09:47:55.576Z,6.25
2019-02-06T09:50:28.201Z,6.30
2019-02-06T09:52:57.131Z,6.53
2019-02-06T09:55:26.706Z,6.51
2019-02-06T09:57:55.998Z,6.48
2019-02-06T10:00:28.714Z,6.49
2019-02-06T10:02:57.287Z,6.38
2019-02-06T10:05:26.584Z,6.43
2019-02-06T10:07:55.258Z,6.43
2019-02-06T10:10:24.399Z,6.41
2019-02-06T10:12:53.415Z,6.38
2019-02-06T10:15:30.769Z,6.39
2019-02-06T10:18:01.037Z,6.33
2019-02-06T10:20:45.735Z,6.38
2019-02-06T10:23:14.448Z,6.34
2019-02-06T10:25:43.022Z,6.20
2019-02-06T10:28:11.681Z,6.13
2019-02-06T10:30:47.485Z,6.21
2019-02-06T10:33:18.660Z,6.18
2019-02-06T10:35:46.623Z,6.00
2019-02-06T10:38:15.350Z,6.17
2019-02-06T10:40:43.924Z,6.25
2019-02-06T10:43:12.607Z,6.13
2019-02-06T10:45:41.800Z,6.23
2019-02-06T10:48:10.364Z,6.32
2019-02-06T10:50:43.493Z,6.28
2019-02-06T10:53:12.170Z,6.36
2019-02-06T10:55:40.743Z,6.36
2019-02-06T10:58:09.634Z,6.30
2019-02-06T11:00:46.069Z,6.31
2019-02-06T11:03:14.832Z,6.33
2019-02-06T11:05:43.704Z,6.40
2019-02-06T11:08:12.449Z,6.49
2019-02-06T11:10:41.638Z,6.54
2019-02-06T11:13:10.166Z,6.66
2019-02-06T11:15:38.777Z,6.66
2019-02-06T11:18:07.356Z,6.53
2019-02-06T11:20:37.056Z,6.35
2019-02-06T11:23:07.009Z,6.42
2019-02-06T11:25:36.662Z,6.33
2019-02-06T11:28:06.475Z,6.19
2019-02-06T11:30:35.815Z,6.28
2019-02-06T11:33:05.750Z,6.37
2019-02-06T11:35:34.721Z,6.34
2019-02-06T11:38:03.795Z,6.35
2019-02-06T11:40:32.606Z,6.26
2019-02-06T11:43:01.164Z,6.21
2019-02-06T11:45:31.659Z,6.23
2019-02-06T11:48:00.725Z,6.19
2019-02-06T11:50:40.271Z,6.11
2019-02-06T11:53:12.667Z,6.29
2019-02-06T11:55:41.145Z,6.19
2019-02-06T11:58:10.287Z,6.18
2019-02-06T12:01:05.209Z,6.18
2019-02-06T12:03:33.786Z,6.17
2019-02-06T12:06:02.523Z,6.13
2019-02-06T12:08:31.467Z,6.21
2019-02-06T12:11:00.555Z,6.32
2019-02-06T12:13:29.036Z,6.20
2019-02-06T12:15:57.543Z,6.16
2019-02-06T12:18:26.108Z,6.13
2019-02-06T12:20:54.737Z,6.21
2019-02-06T12:23:32.006Z,6.12
2019-02-06T12:25:54.111Z,6.27
2019-02-06T12:28:23.201Z,6.31
2019-02-06T12:30:51.742Z,6.19
2019-02-06T12:33:20.433Z,6.26
2019-02-06T12:35:49.014Z,6.23
2019-02-06T12:38:17.643Z,6.27
2019-02-06T12:40:46.404Z,6.17
2019-02-06T12:43:14.872Z,6.18
2019-02-06T12:45:43.821Z,6.21
2019-02-06T12:48:12.396Z,6.10
2019-02-06T12:50:41.027Z,6.12
2019-02-06T12:53:09.545Z,6.14
2019-02-06T12:55:38.688Z,6.19
2019-02-06T12:58:08.091Z,6.26
2019-02-06T13:00:39.488Z,6.17
2019-02-06T13:03:08.552Z,6.34
2019-02-06T13:05:38.143Z,6.19
2019-02-06T13:08:07.320Z,6.39
2019-02-06T13:10:36.120Z,6.39
2019-02-06T13:13:05.441Z,6.30
2019-02-06T13:15:34.445Z,6.35
2019-02-06T13:18:04.304Z,6.34
2019-02-06T13:20:33.404Z,6.41
2019-02-06T13:23:02.502Z,6.45
2019-02-06T13:25:30.986Z,6.46
2019-02-06T13:27:59.541Z,6.55
2019-02-06T13:30:32.252Z,6.55
2019-02-06T13:33:01.160Z,6.53
2019-02-06T13:35:29.737Z,6.49
2019-02-06T13:37:58.294Z,6.44
2019-02-06T13:40:27.811Z,6.47
2019-02-06T13:42:56.908Z,6.47
2019-02-06T13:45:29.612Z,6.36
2019-02-06T13:47:58.215Z,6.36
2019-02-06T13:50:28.188Z,6.33
2019-02-06T13:52:56.765Z,6.35
2019-02-06T13:55:25.891Z,6.41
2019-02-06T13:57:54.730Z,6.31
2019-02-06T14:00:27.334Z,6.35
2019-02-06T14:02:56.034Z,6.31
2019-02-06T14:05:27.998Z,6.11
2019-02-06T14:08:00.111Z,6.28
2019-02-06T14:10:29.258Z,6.24
2019-02-06T14:12:59.087Z,6.22
2019-02-06T14:15:31.826Z,6.18
2019-02-06T14:18:01.051Z,6.24
2019-02-06T14:20:30.274Z,6.48
2019-02-06T14:23:15.594Z,6.29
2019-02-06T14:26:26.379Z,6.19
2019-02-06T14:29:57.786Z,6.20
2019-02-06T14:33:22.496Z,6.21
2019-02-06T14:36:24.296Z,6.19
2019-02-06T14:39:20.222Z,6.19
2019-02-06T14:42:34.324Z,6.08
2019-02-06T14:46:20.529Z,5.93
2019-02-06T14:50:06.677Z,5.91
2019-02-06T14:53:10.238Z,5.82
2019-02-06T14:56:48.550Z,5.89
2019-02-06T15:00:08.370Z,5.66
2019-02-06T15:03:45.609Z,5.74
2019-02-06T15:07:15.872Z,5.80
2019-02-06T15:10:59.378Z,5.80
2019-02-06T15:14:46.451Z,5.81
2019-02-06T15:18:31.247Z,5.76
2019-02-06T15:22:18.898Z,5.69
2019-02-06T15:25:31.208Z,5.65
2019-02-06T15:28:58.229Z,5.73
2019-02-06T15:32:23.320Z,5.64
2019-02-06T15:35:30.265Z,5.65
2019-02-06T15:38:39.952Z,5.57
2019-02-06T15:42:00.457Z,5.64
2019-02-06T15:45:32.753Z,5.60
2019-02-06T15:48:31.689Z,5.61
2019-02-06T15:51:32.640Z,5.58
2019-02-06T15:55:01.404Z,5.53
2019-02-06T15:58:26.858Z,5.58
2019-02-06T16:01:39.706Z,5.59
2019-02-06T16:04:55.341Z,5.53
2019-02-06T16:08:37.017Z,5.56
2019-02-06T16:12:17.876Z,5.55
2019-02-06T16:15:40.366Z,5.64
2019-02-06T16:18:38.967Z,5.66
2019-02-06T16:22:09.167Z,5.55
2019-02-06T16:25:05.552Z,5.64
2019-02-06T16:28:35.047Z,5.68
2019-02-06T16:31:57.396Z,5.59
2019-02-06T16:35:07.036Z,5.64
2019-02-06T16:37:56.960Z,5.52
2019-02-06T16:41:37.247Z,5.53
2019-02-06T16:44:34.214Z,5.57
2019-02-06T16:47:52.311Z,5.49
2019-02-06T16:51:09.191Z,5.56
2019-02-06T16:54:59.690Z,5.53
2019-02-06T16:58:27.537Z,5.62
2019-02-06T17:01:49.014Z,5.54
2019-02-06T17:04:49.383Z,5.54
2019-02-06T17:07:56.969Z,5.49
2019-02-06T17:11:51.266Z,5.55
2019-02-06T17:15:25.922Z,5.53
2019-02-06T17:18:42.467Z,5.57
2019-02-06T17:22:23.500Z,5.52
2019-02-06T17:25:40.032Z,5.56
2019-02-06T17:29:06.144Z,5.42
2019-02-06T17:32:22.915Z,5.56
2019-02-06T17:35:09.262Z,5.58
2019-02-06T17:38:59.160Z,5.53
2019-02-06T17:41:44.448Z,5.59
2019-02-06T17:44:56.131Z,5.60
2019-02-06T17:48:16.230Z,5.60
2019-02-06T17:51:18.807Z,5.53
2019-02-06T17:54:47.004Z,5.57
2019-02-06T17:57:15.676Z,5.53
2019-02-06T17:59:44.272Z,5.58
2019-02-06T18:02:13.156Z,5.65
2019-02-06T18:04:44.918Z,5.62
2019-02-06T18:07:13.579Z,5.56
2019-02-06T18:09:42.496Z,5.54
2019-02-06T18:12:11.500Z,5.60
2019-02-06T18:14:40.157Z,5.67
2019-02-06T18:17:08.728Z,5.54
2019-02-06T18:19:39.428Z,5.64
2019-02-06T18:22:08.838Z,5.48
2019-02-06T18:24:37.609Z,5.60
2019-02-06T18:27:06.727Z,5.55
2019-02-06T18:29:35.565Z,5.54
2019-02-06T18:32:05.020Z,5.62
2019-02-06T18:34:33.803Z,5.55
2019-02-06T18:37:02.580Z,5.62
2019-02-06T18:39:31.207Z,5.75
2019-02-06T18:41:59.872Z,5.74
2019-02-06T18:44:29.237Z,5.65
2019-02-06T18:47:00.263Z,5.70
2019-02-06T18:49:28.901Z,5.61
2019-02-06T18:51:57.571Z,5.67
2019-02-06T18:54:26.393Z,5.73
2019-02-06T18:56:55.082Z,5.73
2019-02-06T18:59:24.026Z,5.73
2019-02-06T19:01:55.308Z,5.79
2019-02-06T19:04:23.497Z,5.81
2019-02-06T19:06:52.132Z,5.70
2019-02-06T19:09:20.962Z,5.72
2019-02-06T19:11:49.569Z,5.67
2019-02-06T19:14:19.192Z,5.77
2019-02-06T19:16:48.311Z,5.76
2019-02-06T19:19:26.323Z,5.80
2019-02-06T19:21:48.278Z,5.80
2019-02-06T19:24:17.830Z,5.79
2019-02-06T19:26:46.654Z,5.69
2019-02-06T19:29:15.105Z,5.74
2019-02-06T19:31:44.731Z,5.77
2019-02-06T19:34:13.352Z,5.85
2019-02-06T19:36:42.040Z,5.86
2019-02-06T19:39:10.708Z,5.78
2019-02-06T19:41:40.035Z,5.73
2019-02-06T19:44:11.252Z,5.72
2019-02-06T19:46:39.515Z,5.84
2019-02-06T19:49:08.642Z,5.79
2019-02-06T19:51:37.470Z,5.90
2019-02-06T19:54:06.199Z,5.80
2019-02-06T19:56:35.723Z,5.78
2019-02-06T19:59:05.187Z,5.81
2019-02-06T20:01:34.252Z,5.75
2019-02-06T20:04:03.045Z,5.94
2019-02-06T20:06:32.585Z,5.86
2019-02-06T20:09:10.496Z,5.80
2019-02-06T20:11:39.135Z,5.90
2019-02-06T20:14:07.841Z,5.82
2019-02-06T20:16:37.502Z,5.86
2019-02-06T20:19:06.582Z,5.85
2019-02-06T20:21:36.077Z,5.78
2019-02-06T20:24:06.273Z,5.81
2019-02-06T20:26:35.381Z,5.82
2019-02-06T20:29:04.298Z,5.80
2019-02-06T20:31:33.581Z,5.84
2019-02-06T20:34:02.188Z,5.93
2019-02-06T20:36:31.185Z,5.91
2019-02-06T20:39:00.396Z,5.85
2019-02-06T20:41:29.369Z,5.92
2019-02-06T20:43:58.297Z,5.94
2019-02-06T20:46:27.402Z,5.90
2019-02-06T20:48:56.075Z,5.90
2019-02-06T20:51:24.735Z,5.94
2019-02-06T20:53:53.468Z,5.87
2019-02-06T20:56:23.290Z,5.93
2019-02-06T20:58:52.185Z,5.86
2019-02-06T21:01:20.741Z,5.89
2019-02-06T21:03:49.569Z,5.93
2019-02-06T21:06:18.173Z,5.91
2019-02-06T21:08:46.801Z,5.97
2019-02-06T21:11:15.814Z,5.67
2019-02-06T21:13:44.767Z,5.89
2019-02-06T21:16:13.352Z,5.77
2019-02-06T21:18:42.082Z,5.94
2019-02-06T21:21:10.659Z,5.93
2019-02-06T21:23:39.165Z,5.79
2019-02-06T21:26:07.693Z,5.92
2019-02-06T21:28:36.766Z,5.91
2019-02-06T21:31:05.671Z,5.95
2019-02-06T21:33:34.238Z,5.92
2019-02-06T21:36:02.858Z,5.85
2019-02-06T21:38:31.922Z,5.98
2019-02-06T21:41:00.402Z,6.04
2019-02-06T21:43:29.983Z,6.04
2019-02-06T21:45:58.819Z,6.01
2019-02-06T21:48:27.298Z,5.90
2019-02-06T21:50:56.425Z,5.98
2019-02-06T21:53:24.990Z,5.95
2019-02-06T21:55:53.558Z,5.96
2019-02-06T21:58:22.182Z,6.00
2019-02-06T22:00:50.749Z,6.00
2019-02-06T22:03:19.377Z,6.03
2019-02-06T22:05:48.016Z,5.98
2019-02-06T22:08:16.496Z,5.97
2019-02-06T22:10:45.081Z,5.84
2019-02-06T22:13:13.812Z,5.82
2019-02-06T22:15:46.596Z,5.85
2019-02-06T22:18:15.590Z,5.85
2019-02-06T22:20:44.266Z,5.84
2019-02-06T22:23:12.735Z,5.96
2019-02-06T22:25:41.365Z,5.98
2019-02-06T22:28:10.027Z,5.87
2019-02-06T22:30:38.698Z,5.94
2019-02-06T22:33:07.499Z,5.89
2019-02-06T22:35:35.972Z,6.01
2019-02-06T22:38:04.828Z,5.96
2019-02-06T22:40:33.658Z,5.91
2019-02-06T22:43:03.272Z,5.75
2019-02-06T22:45:31.796Z,5.84
2019-02-06T22:48:00.748Z,5.99
2019-02-06T22:50:29.414Z,5.98
2019-02-06T22:52:58.356Z,5.64
2019-02-06T22:57:52.606Z,5.68
2019-02-06T23:00:45.143Z,5.65
2019-02-06T23:03:16.834Z,5.64
2019-02-06T23:05:46.657Z,5.55
2019-02-06T23:08:15.168Z,5.53
2019-02-06T23:10:43.845Z,5.48
2019-02-06T23:13:12.670Z,5.39
2019-02-06T23:15:41.694Z,5.43
2019-02-06T23:18:11.185Z,5.33
2019-02-06T23:20:39.831Z,5.30
2019-02-06T23:23:08.550Z,5.26
2019-02-06T23:25:36.994Z,5.31
2019-02-06T23:28:05.819Z,5.23
2019-02-06T23:30:35.288Z,5.21
2019-02-06T23:33:04.031Z,5.25
2019-02-06T23:35:32.699Z,5.22
2019-02-06T23:38:01.701Z,5.38
2019-02-06T23:40:31.220Z,5.30
2019-02-06T23:43:00.135Z,5.38
2019-02-06T23:45:28.855Z,5.24
2019-02-06T23:47:57.420Z,5.21
2019-02-06T23:50:25.890Z,5.32
2019-02-06T23:52:54.454Z,5.18
2019-02-06T23:55:22.884Z,5.15
2019-02-06T23:57:52.056Z,5.23
